EGTC

Cranfield Airport

Airport
ICAO code
EGTC
Summary
ICAO Region
EUR
ICAO Territory
Location

Cranfield, England

Serving
Cranfield
Elevation
358 ft
Coordinates
52° 4' 8" N , 0° 37' 11" W
Metar
EGTC 151120Z 11005KT 9999 -SHRA FEW049 18/12 Q1008

Runways

Designator Length Width Surface Rops
18/36 620 18 ASP No/No
3/21 1799 46 ASP Yes/Yes

Airport map

Aerial View

SKYbrary Partners:

Safety knowledge contributed by: